Reserve, New Mexico
Current Conditions -  °F | °C
As of 12:35 PM on Thursday 27 Nov 2014 (Local Time) from KJTC Reporting Station
Clear Clear  
Wind Chill: 64°   Ceiling: Unl
Heat Index: 64°   Visibility: 10mi
Dew Point:   Wind: 3mph
Humidity: 7%   Direction: 110°ESE
Pressure: 30.44"   Gusts: NA
Location:  33.71°N, 108.76°W
Report Text: KJTC 271935Z AUTO 11003KT 10SM CLR 18/M18 A3044 RMK AO2
Loading
Personal Weather Stations






























Interactive Weather Map New forecast layout! Learn more

10-Day Weather Forecast

Advertisements
Track Severe Weather on mobile